createdAt,value
2017-07-06T00:04:26.189Z,0
2017-07-06T00:09:22.183Z,0
2017-07-06T00:14:17.989Z,0
2017-07-06T00:19:14.694Z,0
2017-07-06T00:24:10.484Z,0
2017-07-06T00:29:06.068Z,0
2017-07-06T00:34:02.233Z,0
2017-07-06T00:38:57.994Z,0
2017-07-06T00:43:54.768Z,0
2017-07-06T00:48:50.289Z,0
2017-07-06T00:53:46.133Z,0
2017-07-06T00:58:43.013Z,0
2017-07-06T01:03:38.774Z,0
2017-07-06T01:08:34.550Z,0
2017-07-06T01:13:31.524Z,0
2017-07-06T01:18:27.787Z,0
2017-07-06T01:23:24.666Z,0
2017-07-06T01:28:20.256Z,0
2017-07-06T01:33:15.890Z,0
2017-07-06T01:38:12.812Z,0
2017-07-06T01:43:09.354Z,0
2017-07-06T01:48:04.801Z,0
2017-07-06T01:53:01.508Z,0
2017-07-06T01:57:58.369Z,0
2017-07-06T02:02:54.607Z,0
2017-07-06T02:07:51.480Z,0
2017-07-06T02:12:47.226Z,0
2017-07-06T02:17:42.885Z,0
2017-07-06T02:22:38.926Z,0
2017-07-06T02:27:34.589Z,0
2017-07-06T02:32:30.881Z,0
2017-07-06T02:37:26.739Z,0
2017-07-06T02:42:22.769Z,0
2017-07-06T02:47:18.473Z,0
2017-07-06T02:52:14.205Z,0
2017-07-06T02:57:10.264Z,0
2017-07-06T03:02:06.116Z,0
2017-07-06T03:07:03.030Z,0
2017-07-06T03:11:58.533Z,0
2017-07-06T03:16:55.394Z,0
2017-07-06T03:21:52.063Z,5
2017-07-06T03:26:47.610Z,5
2017-07-06T03:31:43.498Z,10
2017-07-06T03:36:39.312Z,10
2017-07-06T03:41:36.205Z,15
2017-07-06T03:46:32.119Z,20
2017-07-06T03:51:28.915Z,20
2017-07-06T03:56:24.843Z,30
2017-07-06T04:01:20.708Z,40
2017-07-06T04:06:17.779Z,50
2017-07-06T04:11:15.427Z,55
2017-07-06T04:16:10.848Z,60
2017-07-06T04:21:07.547Z,65
2017-07-06T04:26:03.390Z,70
2017-07-06T04:30:59.094Z,75
2017-07-06T04:35:55.086Z,100
2017-07-06T04:40:50.980Z,80
2017-07-06T04:45:46.781Z,85
2017-07-06T04:50:45.021Z,95
2017-07-06T04:55:40.268Z,110
2017-07-06T05:00:36.332Z,130
2017-07-06T05:05:32.978Z,140
2017-07-06T05:10:29.018Z,145
2017-07-06T05:15:26.570Z,155
2017-07-06T05:20:22.341Z,155
2017-07-06T05:25:18.585Z,145
2017-07-06T05:30:14.835Z,170
2017-07-06T05:35:12.393Z,175
2017-07-06T05:40:09.157Z,180
2017-07-06T05:45:05.431Z,185
2017-07-06T05:50:01.685Z,175
2017-07-06T05:54:57.202Z,180
2017-07-06T05:59:53.392Z,175
2017-07-06T06:04:48.793Z,155
2017-07-06T06:09:44.072Z,155
2017-07-06T06:14:39.438Z,160
2017-07-06T06:19:35.058Z,160
2017-07-06T06:24:31.995Z,165
2017-07-06T06:29:27.597Z,165
2017-07-06T06:34:23.449Z,165
2017-07-06T06:39:19.831Z,165
2017-07-06T06:44:15.847Z,170
2017-07-06T06:49:11.805Z,170
2017-07-06T06:54:08.046Z,180
2017-07-06T06:59:04.063Z,180
2017-07-06T07:03:59.795Z,180
2017-07-06T07:08:55.649Z,185
2017-07-06T07:13:51.701Z,190
2017-07-06T07:18:49.120Z,195
2017-07-06T07:23:45.486Z,200
2017-07-06T07:28:41.103Z,200
2017-07-06T07:33:37.889Z,200
2017-07-06T07:38:33.716Z,230
2017-07-06T07:43:30.315Z,215
2017-07-06T07:48:27.368Z,230
2017-07-06T07:53:23.611Z,685
2017-07-06T07:58:23.085Z,1105
2017-07-06T08:03:22.078Z,1090
2017-07-06T08:08:19.591Z,1220
2017-07-06T08:13:17.421Z,1300
2017-07-06T08:18:15.026Z,1270
2017-07-06T08:23:13.616Z,1305
2017-07-06T08:28:10.561Z,1435
2017-07-06T08:33:07.776Z,1415
2017-07-06T08:38:03.973Z,1530
2017-07-06T08:42:59.940Z,1525
2017-07-06T08:47:56.187Z,1310
2017-07-06T08:52:52.244Z,1495
2017-07-06T08:57:49.086Z,1585
2017-07-06T09:02:44.816Z,1555
2017-07-06T09:07:40.599Z,1690
2017-07-06T09:12:37.719Z,1650
2017-07-06T09:17:34.299Z,1540
2017-07-06T09:22:30.422Z,1575
2017-07-06T09:27:28.038Z,1825
2017-07-06T09:32:23.914Z,1690
2017-07-06T09:37:19.788Z,1745
2017-07-06T09:42:16.280Z,1770
2017-07-06T09:47:12.003Z,1480
2017-07-06T09:52:07.606Z,1820
2017-07-06T09:57:04.239Z,1825
2017-07-06T10:02:02.763Z,1870
2017-07-06T10:06:59.995Z,1995
2017-07-06T10:11:56.242Z,1795
2017-07-06T10:16:51.930Z,1885
2017-07-06T10:21:48.633Z,1955
2017-07-06T10:26:44.055Z,1810
2017-07-06T10:31:39.899Z,1900
2017-07-06T10:36:36.326Z,1825
2017-07-06T10:41:32.553Z,1150
2017-07-06T10:46:27.359Z,1770
2017-07-06T10:51:25.019Z,1775
2017-07-06T10:56:21.888Z,1895
2017-07-06T11:01:18.778Z,1840
2017-07-06T11:06:15.733Z,2050
2017-07-06T11:11:12.760Z,2090
2017-07-06T11:16:09.528Z,2050
2017-07-06T11:21:06.107Z,1825
2017-07-06T11:26:03.511Z,1965
2017-07-06T11:31:03.056Z,2095
2017-07-06T11:35:58.636Z,2145
2017-07-06T11:40:54.557Z,2155
2017-07-06T11:45:51.090Z,2125
2017-07-06T11:50:47.243Z,1940
2017-07-06T11:55:43.714Z,1955
2017-07-06T12:00:40.961Z,1955
2017-07-06T12:05:38.065Z,2100
2017-07-06T12:10:35.071Z,1985
2017-07-06T12:15:30.535Z,1940
2017-07-06T12:20:26.625Z,2095
2017-07-06T12:25:23.828Z,2035
2017-07-06T12:30:19.384Z,2045
2017-07-06T12:35:15.142Z,2125
2017-07-06T12:40:10.745Z,2105
2017-07-06T12:45:07.606Z,2035
2017-07-06T12:50:03.690Z,2115
2017-07-06T12:54:59.702Z,2120
2017-07-06T12:59:55.266Z,1935
2017-07-06T13:04:50.843Z,1870
2017-07-06T13:09:47.583Z,2050
2017-07-06T13:14:42.865Z,1550
2017-07-06T13:19:38.300Z,1670
2017-07-06T13:24:35.480Z,1780
2017-07-06T13:29:30.833Z,1675
2017-07-06T13:34:25.885Z,1760
2017-07-06T13:39:21.519Z,1635
2017-07-06T13:44:18.357Z,1855
2017-07-06T13:49:13.775Z,1655
2017-07-06T13:54:09.388Z,1375
2017-07-06T13:59:04.853Z,1495
2017-07-06T14:04:01.201Z,735
2017-07-06T14:08:56.657Z,300
2017-07-06T14:13:51.997Z,275
2017-07-06T14:18:48.635Z,290
2017-07-06T14:23:44.124Z,295
2017-07-06T14:33:39.918Z,295
2017-07-06T14:38:35.577Z,260
2017-07-06T14:43:32.857Z,270
2017-07-06T14:48:28.491Z,285
2017-07-06T14:53:24.514Z,270
2017-07-06T14:58:20.790Z,255
2017-07-06T15:03:17.723Z,260
2017-07-06T15:08:13.837Z,265
2017-07-06T15:13:09.842Z,250
2017-07-06T15:18:05.858Z,235
2017-07-06T15:23:01.811Z,230
2017-07-06T15:27:57.619Z,220
2017-07-06T15:32:53.343Z,210
2017-07-06T15:37:49.146Z,205
2017-07-06T15:42:45.968Z,205
2017-07-06T15:47:41.697Z,205
2017-07-06T15:52:37.868Z,210
2017-07-06T15:57:33.822Z,215
2017-07-06T16:02:30.103Z,220
2017-07-06T16:07:26.637Z,225
2017-07-06T16:12:22.815Z,240
2017-07-06T16:17:19.172Z,220
2017-07-06T16:22:15.896Z,210
2017-07-06T16:27:11.877Z,200
2017-07-06T16:32:07.858Z,195
2017-07-06T16:37:03.943Z,185
2017-07-06T16:41:59.905Z,160
2017-07-06T16:46:55.633Z,140
2017-07-06T16:51:51.911Z,125
2017-07-06T16:56:47.751Z,130
2017-07-06T17:01:43.512Z,120
2017-07-06T17:06:39.251Z,110
2017-07-06T17:11:34.928Z,105
2017-07-06T17:16:30.700Z,105
2017-07-06T17:21:26.652Z,90
2017-07-06T17:26:23.489Z,75
2017-07-06T17:31:19.883Z,85
2017-07-06T17:36:15.614Z,95
2017-07-06T17:41:11.601Z,90
2017-07-06T17:46:07.371Z,90
2017-07-06T17:51:03.384Z,85
2017-07-06T17:55:59.371Z,70
2017-07-06T18:00:56.337Z,75
2017-07-06T18:05:51.968Z,65
2017-07-06T18:10:47.887Z,60
2017-07-06T18:15:43.915Z,60
2017-07-06T18:20:40.912Z,50
2017-07-06T18:25:37.561Z,50
2017-07-06T18:30:33.220Z,45
2017-07-06T18:35:29.014Z,35
2017-07-06T18:40:25.697Z,30
2017-07-06T18:45:21.603Z,30
2017-07-06T18:50:18.628Z,25
2017-07-06T18:55:14.312Z,20
2017-07-06T19:00:11.148Z,20
2017-07-06T19:05:07.372Z,25
2017-07-06T19:10:04.243Z,20
2017-07-06T19:15:00.068Z,10
2017-07-06T19:19:55.793Z,5
2017-07-06T19:24:51.892Z,5
2017-07-06T19:29:48.905Z,5
2017-07-06T19:34:44.644Z,5
2017-07-06T19:39:40.464Z,0
2017-07-06T19:44:36.385Z,0
2017-07-06T19:49:32.187Z,0
2017-07-06T19:54:29.741Z,0
2017-07-06T19:59:25.139Z,0
2017-07-06T20:04:21.139Z,0
2017-07-06T20:09:18.317Z,0
2017-07-06T20:14:14.140Z,0
2017-07-06T20:19:09.866Z,0
2017-07-06T20:24:05.677Z,0
2017-07-06T20:29:02.700Z,0
2017-07-06T20:33:58.194Z,0
2017-07-06T20:38:55.050Z,0
2017-07-06T20:43:51.038Z,0
2017-07-06T20:48:48.223Z,0
2017-07-06T20:53:44.708Z,0
2017-07-06T20:58:41.328Z,0
2017-07-06T21:03:36.879Z,0
2017-07-06T21:08:33.829Z,0
2017-07-06T21:13:30.086Z,0
2017-07-06T21:18:26.065Z,0
2017-07-06T21:23:23.153Z,0
2017-07-06T21:28:19.775Z,0
2017-07-06T21:33:15.708Z,0
2017-07-06T21:38:11.748Z,0
2017-07-06T21:43:08.906Z,0
2017-07-06T21:48:04.322Z,0
2017-07-06T21:53:00.141Z,0
2017-07-06T21:57:56.927Z,0
2017-07-06T22:02:52.288Z,0
2017-07-06T22:07:48.061Z,0
2017-07-06T22:12:44.090Z,0
2017-07-06T22:17:39.800Z,0
2017-07-06T22:22:35.556Z,0
2017-07-06T22:27:31.669Z,0
2017-07-06T22:32:27.436Z,0
2017-07-06T22:37:23.223Z,0
2017-07-06T22:42:18.939Z,0
2017-07-06T22:47:15.948Z,0
2017-07-06T22:52:11.484Z,0
2017-07-06T22:57:07.542Z,0
2017-07-06T23:02:03.510Z,0
2017-07-06T23:06:59.423Z,0
2017-07-06T23:11:55.062Z,0
2017-07-06T23:16:50.941Z,0
2017-07-06T23:21:46.867Z,0
2017-07-06T23:26:43.032Z,0
2017-07-06T23:31:38.804Z,0
2017-07-06T23:36:34.633Z,0
2017-07-06T23:41:30.475Z,0
2017-07-06T23:46:27.301Z,0
2017-07-06T23:51:23.877Z,0
2017-07-06T23:56:19.506Z,0
